Time;durP1;ratioP1;P1;durP2;ratioP2;P2;SDS_P1;SDS_P2;PMS_P1;PMS_P2;Temp;Humidity;BMP_temperature;BMP_pressure;BME280_temperature;BME280_humidity;BME280_pressure;Samples;Min_cycle;Max_cycle;Signal;HPM_P1;HPM_P2
2022/08/01 00:01:17;;;;;;;9.20;4.03;;;;;;;7.86;76.27;99377.20;1721474;82;20931;-60
2022/08/01 00:03:44;;;;;;;6.03;3.22;;;;;;;7.81;76.23;99372.22;1721245;81;20973;-60
2022/08/01 00:06:11;;;;;;;6.33;3.63;;;;;;;7.78;76.28;99367.12;1715231;82;21014;-60
2022/08/01 00:08:37;;;;;;;6.13;3.50;;;;;;;7.73;76.32;99361.29;1721313;82;21068;-59
2022/08/01 00:11:04;;;;;;;4.03;3.62;;;;;;;7.71;76.50;99364.86;1715671;82;21101;-60
2022/08/01 00:13:31;;;;;;;5.50;3.30;;;;;;;7.67;76.57;99361.52;1718808;82;21527;-60
2022/08/01 00:15:57;;;;;;;4.73;3.37;;;;;;;7.58;76.68;99348.91;1715588;81;20970;-60
2022/08/01 00:18:24;;;;;;;5.42;3.40;;;;;;;7.61;76.81;99356.58;1717056;82;21636;-59
2022/08/01 00:20:51;;;;;;;4.30;3.65;;;;;;;7.59;76.85;99364.91;1718750;82;21068;-60
2022/08/01 00:23:17;;;;;;;3.93;3.00;;;;;;;7.57;76.89;99360.23;1715305;82;21452;-60
2022/08/01 00:25:44;;;;;;;5.08;3.75;;;;;;;7.58;76.96;99358.00;1715082;82;21481;-60
2022/08/01 00:28:13;;;;;;;3.77;3.15;;;;;;;7.56;76.96;99354.62;1721239;82;21023;-60
2022/08/01 00:30:40;;;;;;;4.85;3.47;;;;;;;7.54;76.98;99356.45;1718017;82;21495;-59
2022/08/01 00:33:06;;;;;;;5.40;3.33;;;;;;;7.55;77.10;99355.54;1714636;82;21703;-60
2022/08/01 00:35:33;;;;;;;7.70;3.60;;;;;;;7.53;77.05;99353.45;1713890;82;20873;-60
2022/08/01 00:38:00;;;;;;;5.50;3.77;;;;;;;7.50;77.19;99350.97;1718219;81;21024;-60
2022/08/01 00:40:27;;;;;;;6.40;4.50;;;;;;;7.47;77.15;99345.91;1717646;81;21038;-60
2022/08/01 00:42:53;;;;;;;6.37;3.15;;;;;;;7.44;77.31;99343.44;1716940;82;20898;-59
2022/08/01 00:45:20;;;;;;;8.00;3.37;;;;;;;7.43;77.33;99344.36;1715229;82;21830;-59
2022/08/01 00:47:46;;;;;;;8.95;3.52;;;;;;;7.37;77.29;99341.09;1718077;82;20999;-60
2022/08/01 00:50:14;;;;;;;3.40;3.00;;;;;;;7.33;77.34;99342.11;1719201;82;20998;-60
2022/08/01 00:52:41;;;;;;;4.58;3.10;;;;;;;7.29;77.40;99342.31;1716560;82;21006;-60
2022/08/01 00:55:10;;;;;;;5.15;3.33;;;;;;;7.28;77.53;99346.66;1716785;82;20958;-60
2022/08/01 00:57:37;;;;;;;3.52;2.98;;;;;;;7.28;77.71;99344.06;1717592;82;20921;-59
2022/08/01 01:00:06;;;;;;;5.20;3.50;;;;;;;7.27;77.66;99337.16;1723294;82;21080;-60
2022/08/01 01:02:34;;;;;;;7.00;4.45;;;;;;;7.24;77.68;99339.88;1719742;82;21101;-59
2022/08/01 01:05:01;;;;;;;6.05;3.83;;;;;;;7.25;77.79;99335.53;1718016;82;20907;-60
2022/08/01 01:08:08;;;;;;;12.82;4.28;;;;;;;7.27;77.90;99337.63;1714934;82;20935;-59
2022/08/01 01:10:43;;;;;;;8.20;4.50;;;;;;;7.27;77.89;99337.16;1717749;82;21555;-59
2022/08/01 01:13:30;;;;;;;6.62;4.60;;;;;;;7.25;77.93;99341.56;1722472;82;20943;-60
2022/08/01 01:16:00;;;;;;;6.90;4.65;;;;;;;7.25;78.04;99341.56;1717920;82;22128;-60
2022/08/01 01:18:55;;;;;;;7.25;5.40;;;;;;;7.26;78.12;99343.27;1715936;82;21000;-59
2022/08/01 01:21:48;;;;;;;6.00;5.30;;;;;;;7.27;78.25;99334.56;1713216;81;21117;-59
2022/08/01 01:24:32;;;;;;;7.22;5.40;;;;;;;7.27;78.29;99339.76;1718174;82;21490;-60
2022/08/01 01:27:16;;;;;;;10.20;6.37;;;;;;;7.27;78.45;99331.97;1722796;82;21489;-60
2022/08/01 01:29:46;;;;;;;9.78;6.45;;;;;;;7.26;78.35;99338.08;1678982;83;20966;-59
2022/08/01 01:32:27;;;;;;;7.72;5.53;;;;;;;7.23;78.40;99336.91;1679639;84;21005;-59
2022/08/01 01:34:56;;;;;;;4.40;3.08;;;;;;;7.21;78.40;99327.02;1679695;83;21645;-60
2022/08/01 01:37:26;;;;;;;6.12;3.67;;;;;;;7.14;78.26;99335.95;1684848;84;21105;-59
2022/08/01 01:39:54;;;;;;;5.65;3.70;;;;;;;7.08;78.17;99341.39;1672939;84;21021;-59
2022/08/01 01:42:23;;;;;;;9.58;4.80;;;;;;;7.04;78.39;99335.94;1652910;84;20999;-59
2022/08/01 01:44:51;;;;;;;21.90;6.50;;;;;;;7.05;78.56;99332.42;1673004;84;20989;-59
2022/08/01 01:47:18;;;;;;;14.07;5.87;;;;;;;7.07;78.77;99334.06;1668604;84;21011;-59
2022/08/01 01:49:48;;;;;;;7.00;5.15;;;;;;;7.10;78.88;99333.09;1668203;84;21010;-60
2022/08/01 01:52:17;;;;;;;8.85;5.60;;;;;;;7.12;78.91;99328.70;1674707;84;21027;-60
2022/08/01 01:54:48;;;;;;;9.70;5.90;;;;;;;7.15;78.98;99333.77;1667170;84;21045;-59
2022/08/01 01:57:17;;;;;;;8.53;5.42;;;;;;;7.18;79.10;99328.45;1670764;84;21076;-59
2022/08/01 01:59:46;;;;;;;11.68;5.90;;;;;;;7.18;79.01;99331.05;1676399;84;20973;-60
2022/08/01 02:02:15;;;;;;;8.00;4.75;;;;;;;7.18;79.05;99331.05;1672275;84;21027;-60
2022/08/01 02:04:46;;;;;;;13.40;5.65;;;;;;;7.19;79.05;99334.02;1676382;84;21004;-59
2022/08/01 02:07:21;;;;;;;10.58;6.12;;;;;;;7.20;79.10;99333.13;1706146;82;20950;-60
2022/08/01 02:09:48;;;;;;;21.00;6.70;;;;;;;7.17;79.09;99334.56;1715426;82;20955;-60
2022/08/01 02:12:17;;;;;;;115.55;6.90;;;;;;;7.09;78.96;99332.72;1720848;82;20911;-60
2022/08/01 02:14:46;;;;;;;27.48;6.95;;;;;;;7.04;79.24;99335.94;1721178;82;21078;-60
2022/08/01 02:17:17;;;;;;;42.80;5.17;;;;;;;7.07;79.60;99330.16;1713011;82;20936;-59
2022/08/01 02:19:44;;;;;;;8.43;7.03;;;;;;;7.12;79.90;99328.23;1716215;82;21605;-59
2022/08/01 02:22:28;;;;;;;12.18;7.08;;;;;;;7.15;79.84;99328.11;1719477;82;20883;-59
2022/08/01 02:25:12;;;;;;;14.65;6.85;;;;;;;7.17;79.82;99328.06;1714017;82;20943;-60
2022/08/01 02:27:50;;;;;;;10.03;7.30;;;;;;;7.16;79.84;99323.77;1703212;83;21001;-59
2022/08/01 02:30:18;;;;;;;13.15;7.28;;;;;;;7.17;79.91;99326.77;1719197;82;21423;-59
2022/08/01 02:32:52;;;;;;;11.33;7.10;;;;;;;7.18;79.82;99321.95;1722468;82;20912;-60
2022/08/01 02:35:33;;;;;;;28.40;7.20;;;;;;;7.14;79.82;99325.56;1714919;82;20909;-60
2022/08/01 02:38:01;;;;;;;138.57;7.87;;;;;;;7.06;79.63;99327.64;1716083;81;22589;-61
2022/08/01 02:40:33;;;;;;;182.55;7.55;;;;;;;6.99;79.88;99323.58;1719930;82;21979;-59
2022/08/01 02:43:02;;;;;;;141.07;5.90;;;;;;;7.05;80.38;99320.74;1716433;82;20958;-60
2022/08/01 02:45:31;;;;;;;50.15;6.00;;;;;;;7.13;80.64;99317.39;1714499;82;20934;-60
2022/08/01 02:48:03;;;;;;;38.58;6.60;;;;;;;7.20;80.71;99312.36;1717810;81;20971;-60
2022/08/01 02:50:32;;;;;;;46.73;6.40;;;;;;;7.24;80.57;99317.81;1724422;82;20946;-60
2022/08/01 02:53:01;;;;;;;25.82;6.60;;;;;;;7.25;80.47;99318.19;1720307;82;21893;-60
2022/08/01 02:55:29;;;;;;;24.23;6.47;;;;;;;7.28;80.56;99314.20;1721554;82;20938;-59
2022/08/01 02:57:59;;;;;;;31.23;6.42;;;;;;;7.33;80.67;99314.84;1714183;82;20922;-59
2022/08/01 03:00:26;;;;;;;121.17;7.95;;;;;;;7.39;80.72;99315.91;1721799;82;20907;-60
2022/08/01 03:02:58;;;;;;;;;;;;;;;7.46;80.76;99310.46;1715208;82;20958;-60
2022/08/01 03:05:24;;;;;;;51.58;7.08;;;;;;;7.49;80.82;99314.23;1719903;82;21285;-60
2022/08/01 03:07:53;;;;;;;73.30;6.53;;;;;;;7.55;80.87;99315.27;1718927;82;21446;-60
2022/08/01 03:10:21;;;;;;;16.97;6.15;;;;;;;7.63;80.91;99310.59;1721747;82;21430;-59
2022/08/01 03:12:49;;;;;;;;;;;;;;;7.70;80.92;99313.77;1727945;82;20957;-60
2022/08/01 03:15:17;;;;;;;14.98;5.75;;;;;;;7.79;81.09;99309.05;1714415;82;20115;-60
2022/08/01 03:17:47;;;;;;;21.33;6.80;;;;;;;7.83;80.88;99314.49;1735606;81;21142;-60
2022/08/01 03:20:17;;;;;;;13.72;5.50;;;;;;;7.87;80.89;99313.94;1731662;81;20920;-60
2022/08/01 03:22:45;;;;;;;9.15;5.17;;;;;;;7.98;81.08;99322.12;1732028;81;20965;-60
2022/08/01 03:25:14;;;;;;;9.73;6.33;;;;;;;8.16;81.29;99325.66;1730544;81;20890;-60
2022/08/01 03:27:43;;;;;;;6.45;4.85;;;;;;;8.43;81.59;99321.47;1731371;81;20897;-60
2022/08/01 03:30:12;;;;;;;9.68;5.65;;;;;;;8.84;81.84;99325.26;1732272;81;21060;-60
2022/08/01 03:32:39;;;;;;;8.13;5.87;;;;;;;9.32;81.72;99323.84;1735668;81;20977;-60
2022/08/01 03:35:07;;;;;;;6.28;5.37;;;;;;;9.90;81.71;99316.20;1732601;81;21413;-61
2022/08/01 03:37:47;;;;;;;10.45;5.08;;;;;;;10.62;81.79;99321.61;1730848;81;21007;-60
2022/08/01 03:40:24;;;;;;;8.10;5.92;;;;;;;11.39;81.41;99311.19;1733130;81;21544;-61
2022/08/01 03:43:00;;;;;;;8.65;4.37;;;;;;;12.30;81.25;99309.35;1733198;81;21108;-60
2022/08/01 03:45:32;;;;;;;7.65;4.40;;;;;;;13.26;80.82;99308.65;1733596;81;21435;-61
2022/08/01 03:48:03;;;;;;;6.58;4.00;;;;;;;14.30;80.62;99306.91;1720040;82;21552;-61
2022/08/01 03:50:33;;;;;;;11.90;4.83;;;;;;;15.17;79.77;99307.77;1717458;82;20937;-60
2022/08/01 03:53:02;;;;;;;5.72;3.58;;;;;;;16.15;79.38;99305.72;1717412;81;20903;-61
2022/08/01 03:55:31;;;;;;;4.55;3.52;;;;;;;17.07;78.77;99309.05;1723463;82;21104;-61
2022/08/01 03:57:59;;;;;;;14.85;3.87;;;;;;;18.02;79.02;99298.56;1721102;82;20957;-61
2022/08/01 04:00:27;;;;;;;6.20;3.37;;;;;;;19.08;78.82;99297.81;1713847;82;21694;-61
2022/08/01 04:02:54;;;;;;;4.60;3.47;;;;;;;20.03;77.67;99301.91;1715454;82;20933;-61
2022/08/01 04:05:21;;;;;;;10.88;3.37;;;;;;;20.08;75.53;99298.81;1723118;81;20977;-61
2022/08/01 04:07:55;;;;;;;8.30;3.22;;;;;;;19.48;74.72;99303.48;1721623;82;21077;-61
2022/08/01 04:10:19;;;;;;;5.00;3.00;;;;;;;18.82;74.88;99294.36;1719105;82;20997;-61
2022/08/01 04:12:45;;;;;;;6.17;3.65;;;;;;;18.10;74.53;99300.56;1728582;82;21101;-61
2022/08/01 04:15:12;;;;;;;7.90;3.17;;;;;;;17.56;74.64;99302.41;1723108;82;21417;-60
2022/08/01 04:17:39;;;;;;;10.23;3.85;;;;;;;17.15;75.19;99306.63;1719044;81;20966;-61
2022/08/01 04:20:06;;;;;;;9.70;3.50;;;;;;;16.90;75.46;99307.77;1725057;82;21894;-60
2022/08/01 04:22:35;;;;;;;10.30;3.45;;;;;;;16.57;75.18;99316.52;1723309;82;21072;-60
2022/08/01 04:25:08;;;;;;;7.35;2.72;;;;;;;16.09;74.50;99314.93;1726917;82;21442;-60
2022/08/01 04:27:39;;;;;;;6.00;3.40;;;;;;;15.66;74.66;99306.80;1718585;82;21544;-60
2022/08/01 04:30:08;;;;;;;6.30;2.70;;;;;;;15.19;74.40;99311.14;1724577;82;20962;-60
2022/08/01 04:32:38;;;;;;;3.98;2.77;;;;;;;14.81;74.77;99314.72;1720288;82;21895;-60
2022/08/01 04:35:09;;;;;;;4.87;2.55;;;;;;;14.55;74.94;99314.78;1717281;82;20954;-60
2022/08/01 04:37:37;;;;;;;7.28;2.87;;;;;;;14.33;75.06;99310.14;1719214;82;20975;-60
2022/08/01 04:40:06;;;;;;;8.20;2.95;;;;;;;14.32;75.31;99312.90;1694398;83;20997;-60
2022/08/01 04:42:34;;;;;;;4.12;2.67;;;;;;;14.37;75.34;99309.48;1708563;83;21533;-60
2022/08/01 04:45:00;;;;;;;;;;;;;;;14.40;75.34;99307.95;1712238;83;21167;-61
2022/08/01 04:47:28;;;;;;;6.70;2.83;;;;;;;14.45;75.28;99308.48;1723130;81;20087;-60
2022/08/01 04:49:56;;;;;;;3.42;2.85;;;;;;;14.52;75.33;99315.00;1688503;84;20973;-60
2022/08/01 04:52:23;;;;;;;4.08;2.90;;;;;;;14.49;74.92;99312.56;1697611;83;20931;-60
2022/08/01 04:54:50;;;;;;;4.70;3.15;;;;;;;14.50;75.18;99312.91;1699036;83;20963;-60
2022/08/01 04:57:17;;;;;;;5.67;2.77;;;;;;;14.64;75.23;99315.92;1697609;83;21041;-61
2022/08/01 04:59:44;;;;;;;;;;;;;;;14.85;75.16;99310.95;1700178;83;20906;-61
2022/08/01 05:02:16;;;;;;;6.92;2.92;;;;;;;15.11;75.53;99306.91;1699399;83;20085;-60
2022/08/01 05:04:44;;;;;;;4.08;2.87;;;;;;;15.42;75.62;99307.65;1694652;83;20878;-62
2022/08/01 05:07:12;;;;;;;10.35;2.58;;;;;;;15.89;76.10;99305.92;1698484;83;20907;-61
2022/08/01 05:09:45;;;;;;;2.83;2.45;;;;;;;16.97;76.24;99306.78;1704891;83;21498;-62
2022/08/01 05:12:12;;;;;;;6.17;2.50;;;;;;;18.30;76.04;99301.50;1712543;83;20942;-61
2022/08/01 05:14:40;;;;;;;6.25;2.22;;;;;;;19.98;76.55;99305.47;1722864;82;20963;-61
2022/08/01 05:17:08;;;;;;;4.58;2.20;;;;;;;21.54;75.78;99300.25;1724919;82;20936;-60
2022/08/01 05:19:36;;;;;;;10.13;2.30;;;;;;;22.30;74.17;99298.81;1722526;82;20942;-61
2022/08/01 05:22:06;;;;;;;9.40;2.52;;;;;;;22.56;73.09;99291.62;1722985;82;21865;-61
2022/08/01 05:24:35;;;;;;;7.97;2.22;;;;;;;22.76;72.54;99294.02;1720263;82;21514;-61
2022/08/01 05:27:03;;;;;;;6.28;2.17;;;;;;;22.58;71.61;99298.13;1715794;82;21461;-61
2022/08/01 05:29:31;;;;;;;9.83;3.12;;;;;;;22.38;71.08;99296.20;1722389;82;20899;-61
2022/08/01 05:31:58;;;;;;;8.55;2.40;;;;;;;22.08;70.97;99295.66;1721234;82;20986;-61
2022/08/01 05:34:25;;;;;;;14.55;2.85;;;;;;;21.81;70.60;99300.61;1722836;82;21091;-61
2022/08/01 05:36:52;;;;;;;16.30;2.85;;;;;;;21.52;70.51;99302.72;1714697;82;21008;-61
2022/08/01 05:39:19;;;;;;;;;;;;;;;21.23;70.68;99299.27;1719360;82;21531;-61
2022/08/01 05:41:45;;;;;;;;;;;;;;;20.89;70.06;99307.52;1720717;82;20143;-61
2022/08/01 05:44:12;;;;;;;10.85;2.83;;;;;;;20.52;69.93;99307.05;1712654;82;20127;-61
2022/08/01 05:46:39;;;;;;;10.80;2.65;;;;;;;20.24;70.33;99304.34;1724365;82;21059;-60
2022/08/01 05:49:06;;;;;;;89.87;10.45;;;;;;;20.14;70.32;99299.59;1719757;82;20877;-61
2022/08/01 05:51:33;;;;;;;;;;;;;;;20.11;70.35;99298.55;1725072;82;20926;-61
2022/08/01 05:54:00;;;;;;;56.18;8.05;;;;;;;20.20;70.35;99296.36;1719697;82;20137;-62
2022/08/01 05:56:27;;;;;;;53.90;7.65;;;;;;;20.35;70.46;99296.22;1721062;82;22011;-61
2022/08/01 05:58:54;;;;;;;68.67;8.70;;;;;;;21.17;71.25;99298.55;1717803;82;21891;-62
2022/08/01 06:01:20;;;;;;;20.97;3.60;;;;;;;22.41;71.85;99289.23;1720117;82;20968;-62
2022/08/01 06:03:47;;;;;;;12.20;2.30;;;;;;;23.70;71.26;99287.55;1720650;82;20947;-62
2022/08/01 06:06:14;;;;;;;;;;;;;;;24.45;70.50;99280.62;1717763;82;21004;-62
2022/08/01 06:08:41;;;;;;;14.85;2.20;;;;;;;25.40;70.09;99279.59;1712133;82;20121;-62
2022/08/01 06:11:08;;;;;;;17.82;2.33;;;;;;;25.66;68.20;99276.05;1714775;82;21061;-62
2022/08/01 06:13:35;;;;;;;16.52;2.35;;;;;;;25.08;66.95;99281.47;1715952;81;21023;-64
2022/08/01 06:16:01;;;;;;;9.05;2.00;;;;;;;24.66;67.77;99280.02;1715169;82;21053;-66
2022/08/01 06:18:28;;;;;;;;;;;;;;;24.27;67.04;99276.80;1716110;82;20945;-65
2022/08/01 06:20:54;;;;;;;15.28;1.80;;;;;;;24.15;67.11;99284.84;1717499;82;20118;-65
2022/08/01 06:23:21;;;;;;;;;;;;;;;24.19;67.57;99286.66;1717360;82;21056;-64
2022/08/01 06:25:58;;;;;;;14.63;1.80;;;;;;;24.81;66.67;99291.30;1715725;82;20134;-63
2022/08/01 06:28:22;;;;;;;5.67;1.47;;;;;;;24.98;66.26;99286.19;1710947;82;20945;-63
2022/08/01 06:30:49;;;;;;;8.73;1.20;;;;;;;25.06;66.42;99287.98;1718132;82;21787;-62
2022/08/01 06:33:16;;;;;;;4.28;1.10;;;;;;;25.20;65.81;99285.41;1718477;82;20908;-65
2022/08/01 06:35:43;;;;;;;2.60;0.80;;;;;;;25.45;65.38;99289.25;1715314;82;21062;-62
2022/08/01 06:38:09;;;;;;;4.15;0.82;;;;;;;26.04;66.21;99281.91;1717463;82;21033;-63
2022/08/01 06:40:38;;;;;;;4.47;1.15;;;;;;;26.81;65.23;99279.38;1719423;82;20906;-64
2022/08/01 06:43:04;;;;;;;4.40;1.00;;;;;;;26.94;62.76;99276.34;1718963;81;21022;-63
2022/08/01 06:45:31;;;;;;;5.65;0.80;;;;;;;27.04;62.07;99275.20;1710581;82;20927;-63
2022/08/01 06:47:58;;;;;;;7.15;0.90;;;;;;;27.11;61.50;99280.11;1715155;81;21083;-63
2022/08/01 06:50:25;;;;;;;2.98;1.00;;;;;;;27.09;61.62;99279.48;1713162;82;20916;-63
2022/08/01 06:52:51;;;;;;;1.80;0.70;;;;;;;27.32;61.54;99276.14;1719579;82;20967;-63
2022/08/01 06:55:21;;;;;;;4.40;0.95;;;;;;;27.48;60.95;99279.59;1717867;82;20965;-63
2022/08/01 06:57:52;;;;;;;5.85;0.95;;;;;;;27.53;60.62;99273.12;1713496;81;21478;-62
2022/08/01 07:00:25;;;;;;;3.02;1.00;;;;;;;27.32;60.42;99272.63;1718160;82;22020;-63
2022/08/01 07:02:55;;;;;;;5.22;1.05;;;;;;;26.91;58.98;99274.02;1715711;81;20937;-60
2022/08/01 07:05:23;;;;;;;4.20;0.80;;;;;;;26.67;58.85;99271.69;1716783;82;20895;-60
2022/08/01 07:07:50;;;;;;;4.28;0.78;;;;;;;26.79;59.24;99278.22;1713033;82;20892;-60
2022/08/01 07:10:17;;;;;;;1.50;0.85;;;;;;;26.84;55.59;99269.63;1713007;82;21509;-60
2022/08/01 07:12:44;;;;;;;2.60;0.68;;;;;;;26.21;53.83;99279.89;1714297;82;22302;-60
2022/08/01 07:15:11;;;;;;;2.87;0.93;;;;;;;25.93;56.94;99272.48;1715720;82;21463;-60
2022/08/01 07:17:49;;;;;;;6.25;0.62;;;;;;;26.18;57.48;99274.91;1720304;82;20981;-61
2022/08/01 07:20:18;;;;;;;1.22;0.53;;;;;;;26.74;56.20;99275.27;1720136;82;20918;-62
2022/08/01 07:22:45;;;;;;;4.03;0.80;;;;;;;26.52;55.50;99275.23;1716627;82;20895;-61
2022/08/01 07:25:12;;;;;;;2.65;0.68;;;;;;;26.38;55.44;99283.21;1707929;82;21514;-61
2022/08/01 07:27:39;;;;;;;1.80;0.60;;;;;;;26.11;54.33;99286.35;1712452;82;20939;-61
2022/08/01 07:30:07;;;;;;;5.28;0.80;;;;;;;25.87;54.34;99286.59;1713724;82;20906;-62
2022/08/01 07:32:34;;;;;;;3.65;0.80;;;;;;;25.84;55.22;99288.29;1710287;82;20922;-61
2022/08/01 07:35:03;;;;;;;10.08;1.15;;;;;;;25.98;54.96;99288.82;1713287;82;20998;-61
2022/08/01 07:37:30;;;;;;;1.52;0.80;;;;;;;25.74;54.06;99291.69;1713511;82;21221;-61
2022/08/01 07:39:56;;;;;;;4.90;0.80;;;;;;;25.54;53.56;99290.02;1715758;82;20950;-61
2022/08/01 07:42:23;;;;;;;2.20;0.70;;;;;;;25.22;54.36;99286.08;1719851;82;20982;-61
2022/08/01 07:44:50;;;;;;;1.50;0.85;;;;;;;25.34;54.49;99291.01;1713635;82;20990;-61
2022/08/01 07:47:16;;;;;;;;;;;;;;;25.23;53.76;99289.09;1715991;82;21034;-61
2022/08/01 07:49:43;;;;;;;1.55;0.70;;;;;;;24.84;53.02;99292.28;1713647;82;21044;-61
2022/08/01 07:52:10;;;;;;;5.45;0.82;;;;;;;24.68;53.63;99288.70;1714153;82;20962;-61
2022/08/01 07:54:36;;;;;;;0.98;0.62;;;;;;;24.56;53.43;99287.39;1716564;82;20948;-61
2022/08/01 07:57:04;;;;;;;2.22;0.95;;;;;;;23.89;50.82;99283.23;1711378;82;20927;-61
2022/08/01 07:59:31;;;;;;;1.70;0.60;;;;;;;23.30;52.24;99290.54;1713598;82;20974;-62
2022/08/01 08:01:58;;;;;;;1.87;0.93;;;;;;;23.36;53.23;99281.88;1716647;82;21123;-60
2022/08/01 08:04:26;;;;;;;1.70;0.80;;;;;;;23.52;53.07;99281.03;1714309;82;20951;-60
2022/08/01 08:06:53;;;;;;;1.30;0.75;;;;;;;23.77;53.35;99287.22;1721767;82;21489;-61
2022/08/01 08:09:20;;;;;;;3.08;0.80;;;;;;;23.74;52.02;99284.89;1712571;81;21014;-61
2022/08/01 08:11:47;;;;;;;1.07;0.72;;;;;;;23.34;51.84;99283.05;1713172;82;21438;-61
2022/08/01 08:14:14;;;;;;;3.65;0.88;;;;;;;23.37;52.79;99283.53;1713847;82;21063;-61
2022/08/01 08:16:42;;;;;;;3.50;1.00;;;;;;;23.53;52.24;99279.23;1714676;82;21529;-61
2022/08/01 08:19:09;;;;;;;1.75;0.65;;;;;;;23.48;52.10;99278.89;1712797;82;20920;-61
2022/08/01 08:21:36;;;;;;;3.27;0.72;;;;;;;23.73;52.49;99272.58;1711791;82;20934;-60
2022/08/01 08:24:21;;;;;;;7.20;1.40;;;;;;;24.04;51.82;99279.88;1717314;82;21867;-60
2022/08/01 08:26:53;;;;;;;3.42;0.80;;;;;;;24.11;52.36;99278.17;1712626;82;21045;-60
2022/08/01 08:29:21;;;;;;;16.15;8.95;;;;;;;24.49;52.44;99278.44;1715409;82;20962;-59
2022/08/01 08:31:49;;;;;;;6.37;1.67;;;;;;;24.73;52.43;99288.16;1713814;82;20975;-60
2022/08/01 08:34:16;;;;;;;1.55;0.90;;;;;;;24.88;52.10;99285.60;1715812;81;20970;-61
2022/08/01 08:36:43;;;;;;;1.22;0.70;;;;;;;24.87;51.34;99286.59;1717878;82;21043;-59
2022/08/01 08:39:09;;;;;;;;;;;;;;;24.60;51.05;99288.73;1724295;82;21274;-60
2022/08/01 08:41:38;;;;;;;1.27;0.70;;;;;;;24.57;51.07;99287.75;1716897;82;20099;-61
2022/08/01 08:44:07;;;;;;;2.27;0.82;;;;;;;24.45;51.06;99287.77;1719359;82;20903;-60
2022/08/01 08:46:44;;;;;;;5.10;1.00;;;;;;;24.49;51.27;99287.27;1717775;82;21121;-61
2022/08/01 08:49:13;;;;;;;4.20;0.82;;;;;;;24.64;50.81;99292.70;1711305;82;21429;-60
2022/08/01 08:51:42;;;;;;;3.67;0.80;;;;;;;24.47;50.69;99287.11;1711586;82;21230;-61
2022/08/01 08:54:16;;;;;;;2.35;0.68;;;;;;;24.79;51.10;99289.64;1717838;82;21630;-61
2022/08/01 08:56:42;;;;;;;3.22;0.70;;;;;;;25.11;50.86;99289.12;1713054;82;21010;-61
2022/08/01 08:59:12;;;;;;;4.20;1.12;;;;;;;25.26;50.08;99285.72;1719658;82;20958;-60
2022/08/01 09:01:40;;;;;;;5.72;1.90;;;;;;;25.01;49.37;99292.03;1708007;82;21003;-60
2022/08/01 09:04:07;;;;;;;4.37;1.20;;;;;;;25.03;49.81;99293.17;1715592;82;20979;-61
2022/08/01 09:06:33;;;;;;;;;;;;;;;25.13;49.83;99287.12;1712578;82;21530;-61
2022/08/01 09:09:00;;;;;;;7.30;1.20;;;;;;;25.22;49.39;99283.92;1715435;82;20417;-61
2022/08/01 09:11:27;;;;;;;4.85;1.02;;;;;;;25.13;49.41;99285.78;1713663;82;21464;-60
2022/08/01 09:14:12;;;;;;;6.05;1.00;;;;;;;25.28;49.79;99278.36;1712143;82;21596;-60
2022/08/01 09:16:44;;;;;;;1.57;0.65;;;;;;;25.42;49.19;99280.27;1717475;82;21069;-60
2022/08/01 09:19:18;;;;;;;1.42;0.75;;;;;;;25.37;48.96;99285.30;1715724;82;20916;-62
2022/08/01 09:22:07;;;;;;;10.65;1.60;;;;;;;25.39;48.92;99284.63;1716563;82;21432;-60
2022/08/01 09:24:36;;;;;;;4.45;0.88;;;;;;;25.48;48.83;99284.88;1713746;82;20957;-60
2022/08/01 09:27:25;;;;;;;2.90;0.70;;;;;;;25.31;48.02;99291.37;1708425;82;21005;-60
2022/08/01 09:29:54;;;;;;;1.05;0.70;;;;;;;25.21;48.35;99295.62;1708522;82;21150;-61
2022/08/01 09:32:21;;;;;;;4.58;0.60;;;;;;;25.23;48.42;99290.44;1719300;82;20859;-60
2022/08/01 09:34:47;;;;;;;;;;;;;;;25.32;47.90;99289.01;1719711;82;20962;-60
2022/08/01 09:37:17;;;;;;;1.60;0.75;;;;;;;25.38;47.53;99292.33;1704024;82;20492;-61
2022/08/01 09:39:44;;;;;;;3.80;1.07;;;;;;;25.26;47.47;99291.06;1717355;82;20911;-61
2022/08/01 09:42:21;;;;;;;2.05;1.00;;;;;;;25.13;47.44;99288.96;1736099;81;21932;-62
2022/08/01 09:44:48;;;;;;;5.28;1.10;;;;;;;25.05;47.28;99287.17;1705951;81;21594;-61
2022/08/01 09:47:16;;;;;;;2.35;0.78;;;;;;;25.03;46.77;99291.84;1704650;83;20938;-61
2022/08/01 09:49:45;;;;;;;5.53;1.17;;;;;;;24.93;46.68;99289.92;1733279;81;20940;-61
2022/08/01 09:52:19;;;;;;;6.22;0.82;;;;;;;24.72;46.59;99292.67;1731337;81;20944;-61
2022/08/01 09:54:56;;;;;;;5.65;1.05;;;;;;;24.61;46.90;99290.38;1711625;82;21978;-60
2022/08/01 09:57:26;;;;;;;36.58;3.72;;;;;;;24.52;46.59;99288.25;1713850;82;21513;-62
2022/08/01 09:59:56;;;;;;;11.05;1.67;;;;;;;24.35;46.60;99293.29;1723386;82;20957;-61
2022/08/01 10:02:42;;;;;;;3.33;0.80;;;;;;;24.62;47.11;99286.73;1715516;82;20904;-61
2022/08/01 10:05:11;;;;;;;2.60;1.00;;;;;;;25.01;46.33;99294.70;1713651;81;21029;-61
2022/08/01 10:07:59;;;;;;;1.57;0.60;;;;;;;25.15;46.61;99294.97;1715972;82;21177;-63
2022/08/01 10:10:26;;;;;;;3.10;0.90;;;;;;;25.38;46.25;99289.66;1703432;82;20955;-60
2022/08/01 10:12:57;;;;;;;1.50;0.47;;;;;;;25.48;46.24;99292.91;1729489;82;20907;-60
2022/08/01 10:15:25;;;;;;;3.58;1.10;;;;;;;25.72;46.06;99293.73;1719919;82;20995;-60
2022/08/01 10:17:59;;;;;;;1.67;0.75;;;;;;;25.79;45.96;99291.98;1720093;82;20935;-60
2022/08/01 10:20:32;;;;;;;3.22;0.80;;;;;;;25.99;45.69;99298.53;1719990;82;21277;-60
2022/08/01 10:23:03;;;;;;;2.20;0.70;;;;;;;26.05;45.08;99288.94;1718718;82;22044;-60
2022/08/01 10:25:37;;;;;;;4.45;0.93;;;;;;;25.81;44.89;99292.64;1723546;82;21503;-60
2022/08/01 10:28:09;;;;;;;1.22;0.72;;;;;;;25.94;45.11;99281.36;1725808;82;22039;-60
2022/08/01 10:30:38;;;;;;;2.52;0.90;;;;;;;25.99;44.67;99285.15;1715502;82;20895;-60
2022/08/01 10:33:04;;;;;;;1.60;0.88;;;;;;;25.96;44.67;99285.48;1719214;81;21061;-60
2022/08/01 10:35:32;;;;;;;;;;;;;;;26.05;44.44;99286.27;1723037;82;21033;-60
2022/08/01 10:37:59;;;;;;;1.32;0.60;;;;;;;26.17;44.04;99289.31;1723382;82;20168;-60
2022/08/01 10:40:27;;;;;;;3.60;0.90;;;;;;;26.21;43.50;99293.27;1709184;82;20962;-60
2022/08/01 10:42:56;;;;;;;2.02;0.80;;;;;;;25.99;43.68;99293.17;1691965;83;21022;-61
2022/08/01 10:45:25;;;;;;;1.57;0.90;;;;;;;26.14;43.62;99287.01;1700825;82;21063;-60
2022/08/01 10:48:21;;;;;;;16.20;1.35;;;;;;;26.09;42.76;99281.69;1693415;83;21455;-60
2022/08/01 10:50:54;;;;;;;4.97;1.30;;;;;;;25.99;42.80;99278.47;1656590;85;20947;-60
2022/08/01 10:53:39;;;;;;;1.55;0.80;;;;;;;25.88;42.95;99281.58;1676304;85;21063;-59
2022/08/01 10:56:09;;;;;;;2.70;0.93;;;;;;;26.14;42.81;99278.98;1677680;83;20954;-60
2022/08/01 10:58:38;;;;;;;4.75;1.00;;;;;;;26.34;42.93;99276.89;1673149;84;21496;-60
2022/08/01 11:01:27;;;;;;;3.90;0.80;;;;;;;26.59;42.70;99271.80;1676295;85;20962;-60
2022/08/01 11:04:09;;;;;;;1.75;0.80;;;;;;;26.70;42.55;99276.67;1650709;85;20982;-60
2022/08/01 11:06:44;;;;;;;3.60;0.85;;;;;;;26.89;42.51;99280.09;1674459;85;21075;-60
2022/08/01 11:09:20;;;;;;;4.47;1.12;;;;;;;27.04;42.44;99277.37;1667161;85;21480;-61
2022/08/01 11:12:09;;;;;;;;;;;;;;;27.05;41.64;99278.19;1677806;84;21049;-61
2022/08/01 11:14:35;;;;;;;1.85;0.50;;;;;;;26.66;40.66;99279.39;1673646;84;27735;-61
2022/08/01 11:17:51;;;;;;;2.60;0.70;;;;;;;26.03;38.47;99277.58;1676190;85;20911;-61
2022/08/01 11:20:30;;;;;;;1.52;0.75;;;;;;;25.79;40.29;99287.97;1675779;85;21030;-61
2022/08/01 11:23:06;;;;;;;5.85;1.65;;;;;;;25.56;39.52;99292.84;1644072;86;20959;-60
2022/08/01 11:25:46;;;;;;;3.85;0.80;;;;;;;25.11;39.27;99289.12;1652336;83;21705;-61
2022/08/01 11:28:27;;;;;;;4.15;1.00;;;;;;;25.26;39.11;99291.06;1693602;83;21030;-61
2022/08/01 11:31:08;;;;;;;1.45;0.60;;;;;;;25.03;38.83;99296.36;1687497;83;20914;-61
2022/08/01 11:33:47;;;;;;;2.15;0.80;;;;;;;25.32;39.19;99298.36;1685336;83;20911;-61
2022/08/01 11:36:22;;;;;;;4.15;1.00;;;;;;;25.48;39.29;99286.22;1711452;83;20982;-60
2022/08/01 11:39:07;;;;;;;10.25;1.60;;;;;;;25.47;38.76;99288.58;1716746;83;21073;-61
2022/08/01 11:41:35;;;;;;;1.95;0.85;;;;;;;25.79;39.61;99289.30;1724203;81;20907;-61
2022/08/01 11:44:15;;;;;;;12.78;1.42;;;;;;;26.34;39.54;99296.14;1717218;81;20967;-61
2022/08/01 11:47:09;;;;;;;1.67;0.95;;;;;;;26.46;39.82;99286.62;1713920;82;20923;-62
2022/08/01 11:49:47;;;;;;;5.83;1.00;;;;;;;26.71;38.03;99289.03;1737416;81;21480;-62
2022/08/01 11:52:27;;;;;;;1.57;0.80;;;;;;;26.46;39.10;99282.60;1703799;83;21125;-62